createdAt,value
2024-02-09T00:01:53.883Z,3.40
2024-02-09T00:04:20.603Z,4.22
2024-02-09T00:06:47.260Z,3.92
2024-02-09T00:09:13.962Z,3.50
2024-02-09T00:11:46.367Z,4.65
2024-02-09T00:14:13.954Z,3.73
2024-02-09T00:16:45.138Z,3.15
2024-02-09T00:19:13.242Z,3.65
2024-02-09T00:21:43.463Z,3.50
2024-02-09T00:24:12.430Z,3.17
2024-02-09T00:26:39.806Z,3.27
2024-02-09T00:29:13.650Z,3.13
2024-02-09T00:31:40.326Z,2.85
2024-02-09T00:34:06.989Z,3.47
2024-02-09T00:36:35.370Z,3.40
2024-02-09T00:39:01.957Z,3.10
2024-02-09T00:41:28.519Z,3.35
2024-02-09T00:43:55.052Z,3.70
2024-02-09T00:46:29.556Z,3.67
2024-02-09T00:49:03.860Z,3.05
2024-02-09T00:51:30.669Z,3.50
2024-02-09T00:53:57.215Z,3.03
2024-02-09T00:56:26.393Z,3.65
2024-02-09T00:58:52.959Z,3.28
2024-02-09T01:01:21.721Z,3.70
2024-02-09T01:03:48.650Z,4.00
2024-02-09T01:06:15.753Z,4.43
2024-02-09T01:08:47.068Z,4.10
2024-02-09T01:11:14.361Z,4.68
2024-02-09T01:13:59.659Z,4.13
2024-02-09T01:16:44.979Z,4.20
2024-02-09T01:19:29.900Z,3.67
2024-02-09T01:22:17.709Z,3.92
2024-02-09T01:25:02.761Z,3.97
2024-02-09T01:27:50.223Z,3.83
2024-02-09T01:30:35.069Z,4.20
2024-02-09T01:33:19.987Z,4.15
2024-02-09T01:36:07.454Z,4.32
2024-02-09T01:38:52.376Z,4.60
2024-02-09T01:41:39.695Z,4.75
2024-02-09T01:44:27.239Z,3.93
2024-02-09T01:47:15.588Z,4.30
2024-02-09T01:50:05.885Z,4.05
2024-02-09T01:52:52.014Z,4.90
2024-02-09T01:55:37.270Z,4.80
2024-02-09T01:58:22.706Z,4.30
2024-02-09T02:01:09.283Z,4.80
2024-02-09T02:03:55.046Z,4.70
2024-02-09T02:06:42.897Z,4.90
2024-02-09T02:09:27.773Z,4.65
2024-02-09T02:12:12.847Z,4.90
2024-02-09T02:14:58.280Z,6.35
2024-02-09T02:17:43.200Z,9.90
2024-02-09T02:20:30.857Z,12.10
2024-02-09T02:23:45.095Z,10.00
2024-02-09T02:26:30.528Z,7.33
2024-02-09T02:29:15.731Z,5.97
2024-02-09T02:32:03.315Z,6.15
2024-02-09T02:34:48.212Z,4.80
2024-02-09T02:37:33.575Z,5.43
2024-02-09T02:40:18.724Z,5.57
2024-02-09T02:42:47.312Z,5.57
2024-02-09T02:45:16.394Z,5.50
2024-02-09T02:48:02.995Z,6.20
2024-02-09T02:50:48.416Z,5.65
2024-02-09T02:53:35.994Z,5.43
2024-02-09T02:56:20.928Z,5.47
2024-02-09T02:59:05.871Z,5.97
2024-02-09T03:01:50.776Z,5.28
2024-02-09T03:04:22.842Z,5.30
2024-02-09T03:07:13.581Z,6.23
2024-02-09T03:09:43.340Z,6.05
2024-02-09T03:12:13.412Z,5.60
2024-02-09T03:14:41.175Z,5.57
2024-02-09T03:17:10.433Z,5.97
2024-02-09T03:19:37.450Z,5.70
2024-02-09T03:22:04.253Z,5.10
2024-02-09T03:24:33.055Z,5.45
2024-02-09T03:26:59.860Z,4.50
2024-02-09T03:29:26.487Z,4.85
2024-02-09T03:31:53.032Z,4.70
2024-02-09T03:34:19.908Z,5.10
2024-02-09T03:36:46.661Z,4.53
2024-02-09T03:39:13.254Z,4.70
2024-02-09T03:41:44.591Z,5.03
2024-02-09T03:44:13.387Z,4.53
2024-02-09T03:46:40.059Z,4.60
2024-02-09T03:49:12.443Z,4.70
2024-02-09T03:51:41.362Z,5.13
2024-02-09T03:54:08.172Z,5.38
2024-02-09T03:56:37.408Z,4.83
2024-02-09T03:59:07.717Z,5.15
2024-02-09T04:01:35.054Z,4.75
2024-02-09T04:04:01.944Z,4.30
2024-02-09T04:06:30.852Z,4.70
2024-02-09T04:09:00.606Z,4.60
2024-02-09T04:11:29.913Z,4.47
2024-02-09T04:13:56.713Z,4.70
2024-02-09T04:16:25.516Z,4.20
2024-02-09T04:18:54.363Z,4.47
2024-02-09T04:21:20.936Z,4.00
2024-02-09T04:23:48.368Z,4.78
2024-02-09T04:26:14.986Z,4.22
2024-02-09T04:28:46.667Z,4.65
2024-02-09T04:31:13.414Z,4.55
2024-02-09T04:33:43.887Z,3.77
2024-02-09T04:36:11.981Z,4.45
2024-02-09T04:38:42.212Z,4.40
2024-02-09T04:41:08.937Z,4.07
2024-02-09T04:43:35.509Z,4.30
2024-02-09T04:46:04.497Z,4.07
2024-02-09T04:48:36.067Z,4.10
2024-02-09T04:51:08.764Z,4.50
2024-02-09T04:53:37.758Z,4.03
2024-02-09T04:56:06.784Z,3.88
2024-02-09T04:58:33.400Z,3.90
2024-02-09T05:01:01.356Z,3.42
2024-02-09T05:03:30.288Z,3.67
2024-02-09T05:05:56.840Z,3.70
2024-02-09T05:08:24.964Z,3.35
2024-02-09T05:10:53.953Z,3.77
2024-02-09T05:13:20.725Z,3.40
2024-02-09T05:15:52.116Z,3.35
2024-02-09T05:18:23.281Z,3.20
2024-02-09T05:20:52.082Z,3.25
2024-02-09T05:23:19.006Z,2.83
2024-02-09T05:25:45.736Z,3.10
2024-02-09T05:28:12.415Z,3.00
2024-02-09T05:30:41.239Z,3.67
2024-02-09T05:33:12.142Z,3.35
2024-02-09T05:35:44.072Z,3.70
2024-02-09T05:38:14.379Z,3.00
2024-02-09T05:40:41.008Z,3.88
2024-02-09T05:43:07.619Z,3.28
2024-02-09T05:45:35.808Z,3.38
2024-02-09T05:48:02.401Z,3.50
2024-02-09T05:50:36.787Z,3.50
2024-02-09T05:53:08.781Z,3.10
2024-02-09T05:55:40.572Z,2.83
2024-02-09T05:58:07.315Z,3.50
2024-02-09T06:00:36.227Z,2.60
2024-02-09T06:03:03.829Z,3.08
2024-02-09T06:05:41.516Z,2.50
2024-02-09T06:08:11.390Z,2.75
2024-02-09T06:10:38.165Z,3.17
2024-02-09T06:13:05.138Z,2.97
2024-02-09T06:15:38.130Z,2.67
2024-02-09T06:18:07.121Z,3.45
2024-02-09T06:20:34.932Z,3.30
2024-02-09T06:23:03.029Z,2.88
2024-02-09T06:25:29.613Z,2.77
2024-02-09T06:27:59.612Z,2.78
2024-02-09T06:30:26.342Z,3.00
2024-02-09T06:32:56.486Z,3.00
2024-02-09T06:35:23.198Z,3.05
2024-02-09T06:37:54.097Z,2.93
2024-02-09T06:40:23.224Z,3.20
2024-02-09T06:42:49.993Z,3.42
2024-02-09T06:45:18.164Z,2.85
2024-02-09T06:47:47.055Z,2.60
2024-02-09T06:50:20.981Z,2.43
2024-02-09T06:52:49.537Z,2.88
2024-02-09T06:55:20.560Z,3.30
2024-02-09T06:57:49.944Z,3.60
2024-02-09T07:00:17.094Z,2.88
2024-02-09T07:02:48.924Z,3.03
2024-02-09T07:05:17.252Z,2.78
2024-02-09T07:07:46.578Z,3.38
2024-02-09T07:10:14.671Z,3.28
2024-02-09T07:12:44.057Z,3.42
2024-02-09T07:15:16.096Z,3.23
2024-02-09T07:17:45.113Z,3.08
2024-02-09T07:20:18.008Z,3.30
2024-02-09T07:22:47.579Z,2.80
2024-02-09T07:25:16.645Z,3.10
2024-02-09T07:27:43.335Z,3.50
2024-02-09T07:30:11.203Z,3.30
2024-02-09T07:32:40.137Z,3.55
2024-02-09T07:35:07.319Z,3.65
2024-02-09T07:37:36.446Z,2.90
2024-02-09T07:40:04.392Z,3.30
2024-02-09T07:42:31.143Z,2.92
2024-02-09T07:45:00.588Z,3.17
2024-02-09T07:47:28.609Z,3.30
2024-02-09T07:49:57.759Z,2.85
2024-02-09T07:52:29.673Z,3.00
2024-02-09T07:54:56.469Z,2.67
2024-02-09T07:57:23.034Z,3.15
2024-02-09T07:59:52.574Z,2.80
2024-02-09T08:02:20.108Z,2.65
2024-02-09T08:04:46.923Z,3.20
2024-02-09T08:07:15.435Z,3.38
2024-02-09T08:09:46.927Z,2.80
2024-02-09T08:12:15.748Z,3.40
2024-02-09T08:14:43.754Z,3.22
2024-02-09T08:17:12.734Z,2.63
2024-02-09T08:19:39.380Z,2.95
2024-02-09T08:22:08.489Z,3.38
2024-02-09T08:24:40.053Z,3.25
2024-02-09T08:27:09.754Z,2.67
2024-02-09T08:29:42.473Z,2.90
2024-02-09T08:32:09.408Z,2.80
2024-02-09T08:34:40.833Z,3.00
2024-02-09T08:37:12.019Z,2.65
2024-02-09T08:39:47.780Z,2.97
2024-02-09T08:42:14.961Z,2.87
2024-02-09T08:44:42.121Z,2.72
2024-02-09T08:47:11.444Z,2.80
2024-02-09T08:49:40.880Z,2.33
2024-02-09T08:52:07.538Z,2.55
2024-02-09T08:54:34.616Z,2.30
2024-02-09T08:57:01.149Z,2.72
2024-02-09T08:59:27.759Z,2.40
2024-02-09T09:01:55.149Z,2.60
2024-02-09T09:04:22.596Z,2.83
2024-02-09T09:06:51.649Z,2.57
2024-02-09T09:09:22.221Z,2.60
2024-02-09T09:11:51.068Z,2.20
2024-02-09T09:14:17.646Z,2.42
2024-02-09T09:16:45.581Z,2.10
2024-02-09T09:19:16.270Z,1.97
2024-02-09T09:21:45.909Z,1.80
2024-02-09T09:24:16.646Z,2.10
2024-02-09T09:26:50.550Z,2.00
2024-02-09T09:29:17.107Z,1.88
2024-02-09T09:31:43.762Z,1.73
2024-02-09T09:34:10.390Z,1.50
2024-02-09T09:36:36.942Z,2.30
2024-02-09T09:39:03.734Z,1.73
2024-02-09T09:41:34.642Z,1.95
2024-02-09T09:44:01.246Z,1.53
2024-02-09T09:46:31.794Z,1.73
2024-02-09T09:48:58.983Z,1.60
2024-02-09T09:51:32.030Z,1.55
2024-02-09T09:53:58.904Z,1.67
2024-02-09T09:56:26.915Z,1.60
2024-02-09T09:58:54.013Z,1.60
2024-02-09T10:01:23.083Z,1.35
2024-02-09T10:03:51.093Z,1.52
2024-02-09T10:06:24.075Z,1.77
2024-02-09T10:08:59.130Z,1.40
2024-02-09T10:11:25.783Z,1.17
2024-02-09T10:13:55.320Z,1.10
2024-02-09T10:16:24.510Z,1.38
2024-02-09T10:18:55.771Z,1.60
2024-02-09T10:21:24.792Z,1.10
2024-02-09T10:23:54.108Z,1.35
2024-02-09T10:26:22.144Z,1.25
2024-02-09T10:28:53.034Z,1.13
2024-02-09T10:31:23.762Z,1.60
2024-02-09T10:33:50.692Z,1.00
2024-02-09T10:36:17.919Z,1.48
2024-02-09T10:38:47.747Z,1.70
2024-02-09T10:41:18.236Z,1.77
2024-02-09T10:43:52.255Z,1.38
2024-02-09T10:46:19.824Z,1.47
2024-02-09T10:48:54.696Z,1.55
2024-02-09T10:51:28.681Z,1.55
2024-02-09T10:54:12.806Z,1.88
2024-02-09T10:56:40.942Z,1.42
2024-02-09T10:59:09.123Z,1.60
2024-02-09T11:01:39.173Z,1.58
2024-02-09T11:04:06.324Z,1.38
2024-02-09T11:09:01.984Z,1.52
2024-02-09T11:11:33.495Z,2.00
2024-02-09T11:14:11.334Z,1.63
2024-02-09T11:16:47.056Z,1.58
2024-02-09T11:19:19.088Z,1.70
2024-02-09T11:21:58.849Z,1.95
2024-02-09T11:24:29.010Z,1.97
2024-02-09T11:26:57.218Z,1.98
2024-02-09T11:29:23.986Z,2.17
2024-02-09T11:31:58.427Z,2.10
2024-02-09T11:34:27.074Z,2.35
2024-02-09T11:36:54.766Z,4.07
2024-02-09T11:39:23.622Z,3.72
2024-02-09T11:41:50.856Z,3.35
2024-02-09T11:44:21.260Z,4.05
2024-02-09T11:46:53.262Z,2.45
2024-02-09T11:49:25.201Z,2.47
2024-02-09T11:51:54.680Z,2.35
2024-02-09T11:54:22.761Z,2.45
2024-02-09T11:56:57.358Z,3.30
2024-02-09T11:59:24.013Z,3.00
2024-02-09T12:01:54.851Z,3.03
2024-02-09T12:04:25.792Z,2.75
2024-02-09T12:06:55.598Z,2.38
2024-02-09T12:09:24.464Z,2.47
2024-02-09T12:11:51.372Z,3.15
2024-02-09T12:14:18.159Z,2.80
2024-02-09T12:16:45.189Z,2.63
2024-02-09T12:19:12.218Z,3.00
2024-02-09T12:21:47.482Z,2.50
2024-02-09T12:24:14.105Z,2.75
2024-02-09T12:26:43.635Z,2.30
2024-02-09T12:29:16.647Z,2.50
2024-02-09T12:31:48.894Z,2.10
2024-02-09T12:34:18.637Z,2.78
2024-02-09T12:36:58.584Z,2.58
2024-02-09T12:39:26.538Z,2.00
2024-02-09T12:42:02.463Z,2.50
2024-02-09T12:44:31.221Z,2.17
2024-02-09T12:47:04.264Z,2.40
2024-02-09T12:49:38.604Z,2.45
2024-02-09T12:52:09.787Z,2.37
2024-02-09T12:54:41.482Z,1.70
2024-02-09T12:57:10.613Z,2.22
2024-02-09T12:59:41.319Z,2.45
2024-02-09T13:02:11.549Z,2.00
2024-02-09T13:04:38.978Z,2.07
2024-02-09T13:07:07.537Z,1.92
2024-02-09T13:09:35.004Z,1.88
2024-02-09T13:12:02.400Z,1.90
2024-02-09T13:14:31.826Z,2.30
2024-02-09T13:17:01.087Z,2.57
2024-02-09T13:19:30.369Z,2.42
2024-02-09T13:22:02.932Z,2.40
2024-02-09T13:24:29.628Z,2.38
2024-02-09T13:26:58.665Z,1.75
2024-02-09T13:29:27.617Z,2.17
2024-02-09T13:31:59.734Z,1.95
2024-02-09T13:34:31.497Z,1.85
2024-02-09T13:36:58.245Z,2.33
2024-02-09T13:39:27.896Z,2.58
2024-02-09T13:41:54.854Z,2.30
2024-02-09T13:44:21.445Z,2.20
2024-02-09T13:46:48.037Z,2.60
2024-02-09T13:49:14.672Z,3.13
2024-02-09T13:51:43.807Z,3.00
2024-02-09T13:54:14.960Z,2.87
2024-02-09T13:56:41.519Z,3.28
2024-02-09T13:59:08.078Z,3.45
2024-02-09T14:01:37.611Z,3.85
2024-02-09T14:04:06.933Z,3.05
2024-02-09T14:06:34.626Z,3.40
2024-02-09T14:09:01.359Z,3.10
2024-02-09T14:11:30.472Z,3.65
2024-02-09T14:13:59.223Z,3.33
2024-02-09T14:16:26.953Z,3.75
2024-02-09T14:18:53.619Z,2.87
2024-02-09T14:21:20.183Z,2.97
2024-02-09T14:23:46.716Z,2.60
2024-02-09T14:26:17.244Z,2.92
2024-02-09T14:28:43.931Z,2.85
2024-02-09T14:33:40.091Z,2.53
2024-02-09T14:36:09.773Z,3.42
2024-02-09T14:38:38.729Z,2.70
2024-02-09T14:41:11.703Z,2.70
2024-02-09T14:43:39.222Z,2.33
2024-02-09T14:46:10.858Z,2.58
2024-02-09T14:48:43.257Z,2.33
2024-02-09T14:51:12.340Z,2.90
2024-02-09T14:53:39.705Z,2.92
2024-02-09T14:56:08.506Z,2.80
2024-02-09T14:58:35.773Z,2.78
2024-02-09T15:01:04.878Z,3.22
2024-02-09T15:03:39.104Z,2.63
2024-02-09T15:06:15.431Z,3.10
2024-02-09T15:08:50.364Z,2.83
2024-02-09T15:11:24.609Z,2.97
2024-02-09T15:13:59.714Z,3.03
2024-02-09T15:16:26.606Z,3.72
2024-02-09T15:18:53.684Z,4.53
2024-02-09T15:21:20.353Z,2.90
2024-02-09T15:23:48.705Z,2.92
2024-02-09T15:26:18.165Z,3.08
2024-02-09T15:28:45.532Z,2.67
2024-02-09T15:31:12.359Z,2.50
2024-02-09T15:33:39.698Z,2.10
2024-02-09T15:36:07.162Z,2.47
2024-02-09T15:38:36.739Z,2.15
2024-02-09T15:41:06.216Z,2.10
2024-02-09T15:43:35.159Z,2.30
2024-02-09T15:46:06.608Z,2.77
2024-02-09T15:48:35.007Z,2.45
2024-02-09T15:51:04.332Z,2.35
2024-02-09T15:53:30.897Z,2.33
2024-02-09T15:56:02.151Z,2.28
2024-02-09T15:58:32.942Z,2.40
2024-02-09T16:00:59.964Z,2.10
2024-02-09T16:03:26.637Z,2.50
2024-02-09T16:05:57.088Z,2.38
2024-02-09T16:08:23.815Z,2.30
2024-02-09T16:10:51.465Z,2.30
2024-02-09T16:13:18.070Z,2.13
2024-02-09T16:15:49.278Z,2.20
2024-02-09T16:18:18.085Z,2.67
2024-02-09T16:20:44.657Z,2.38
2024-02-09T16:23:14.680Z,2.50
2024-02-09T16:25:50.065Z,2.35
2024-02-09T16:28:25.844Z,2.50
2024-02-09T16:30:54.962Z,2.00
2024-02-09T16:33:23.856Z,2.95
2024-02-09T16:35:52.707Z,2.20
2024-02-09T16:38:20.372Z,2.78
2024-02-09T16:40:49.634Z,2.60
2024-02-09T16:43:16.574Z,2.42
2024-02-09T16:45:44.040Z,3.08
2024-02-09T16:48:10.851Z,3.33
2024-02-09T16:50:41.013Z,3.30
2024-02-09T16:53:10.831Z,2.67
2024-02-09T16:55:40.520Z,3.15
2024-02-09T16:58:07.631Z,3.50
2024-02-09T17:00:37.575Z,2.80
2024-02-09T17:03:06.895Z,3.17
2024-02-09T17:05:35.937Z,3.35
2024-02-09T17:08:04.816Z,2.60
2024-02-09T17:10:31.584Z,2.70
2024-02-09T17:12:59.103Z,2.43
2024-02-09T17:15:25.680Z,2.35
2024-02-09T17:17:57.029Z,2.60
2024-02-09T17:20:25.889Z,2.72
2024-02-09T17:22:57.511Z,3.08
2024-02-09T17:25:24.610Z,2.50
2024-02-09T17:27:53.736Z,2.70
2024-02-09T17:30:20.346Z,2.80
2024-02-09T17:32:49.978Z,2.58
2024-02-09T17:35:16.627Z,2.67
2024-02-09T17:37:43.973Z,2.53
2024-02-09T17:40:10.853Z,2.90
2024-02-09T17:42:37.458Z,3.60
2024-02-09T17:45:05.180Z,3.53
2024-02-09T17:47:31.868Z,3.63
2024-02-09T17:49:58.470Z,3.33
2024-02-09T17:52:27.440Z,3.80
2024-02-09T17:54:56.430Z,3.67
2024-02-09T17:57:25.559Z,3.50
2024-02-09T17:59:54.669Z,4.03
2024-02-09T18:02:23.443Z,3.83
2024-02-09T18:04:50.184Z,3.67
2024-02-09T18:07:19.737Z,3.95
2024-02-09T18:09:46.418Z,4.18
2024-02-09T18:12:13.013Z,3.58
2024-02-09T18:14:39.630Z,2.83
2024-02-09T18:17:08.636Z,3.03
2024-02-09T18:19:35.443Z,3.08
2024-02-09T18:22:06.683Z,3.00
2024-02-09T18:24:38.684Z,3.08
2024-02-09T18:27:08.648Z,2.57
2024-02-09T18:29:35.250Z,2.25
2024-02-09T18:32:05.149Z,2.58
2024-02-09T18:34:34.469Z,2.85
2024-02-09T18:37:03.546Z,2.95
2024-02-09T18:39:30.117Z,2.87
2024-02-09T18:42:01.614Z,3.10
2024-02-09T18:44:30.658Z,3.10
2024-02-09T18:46:57.988Z,3.00
2024-02-09T18:49:29.236Z,2.90
2024-02-09T18:51:59.702Z,3.27
2024-02-09T18:54:26.463Z,3.20
2024-02-09T18:56:53.517Z,3.10
2024-02-09T18:59:22.523Z,2.80
2024-02-09T19:01:52.094Z,2.80
2024-02-09T19:04:19.188Z,3.17
2024-02-09T19:06:46.910Z,4.13
2024-02-09T19:09:14.377Z,3.50
2024-02-09T19:11:43.795Z,4.10
2024-02-09T19:14:10.775Z,4.97
2024-02-09T19:16:39.882Z,3.10
2024-02-09T19:19:12.398Z,3.35
2024-02-09T19:21:39.782Z,2.95
2024-02-09T19:24:08.624Z,3.28
2024-02-09T19:26:35.392Z,3.20
2024-02-09T19:29:04.480Z,2.83
2024-02-09T19:31:31.591Z,2.83
2024-02-09T19:33:58.480Z,3.10
2024-02-09T19:36:25.256Z,2.85
2024-02-09T19:38:51.841Z,3.53
2024-02-09T19:41:24.506Z,3.53
2024-02-09T19:43:53.740Z,3.33
2024-02-09T19:46:24.918Z,3.40
2024-02-09T19:48:53.096Z,3.80
2024-02-09T19:51:21.958Z,4.15
2024-02-09T19:53:50.924Z,3.40
2024-02-09T19:56:19.839Z,3.50
2024-02-09T19:58:46.645Z,3.85
2024-02-09T20:01:14.029Z,3.17
2024-02-09T20:03:43.677Z,3.92
2024-02-09T20:06:10.339Z,4.43
2024-02-09T20:08:39.980Z,4.22
2024-02-09T20:11:11.269Z,4.43
2024-02-09T20:13:37.806Z,4.22
2024-02-09T20:16:07.148Z,4.07
2024-02-09T20:18:33.726Z,4.23
2024-02-09T20:21:00.362Z,3.80
2024-02-09T20:23:28.030Z,4.10
2024-02-09T20:25:55.407Z,4.00
2024-02-09T20:28:24.629Z,4.32
2024-02-09T20:30:51.233Z,4.03
2024-02-09T20:33:19.589Z,4.00
2024-02-09T20:35:52.368Z,4.38
2024-02-09T20:38:22.130Z,3.53
2024-02-09T20:40:49.859Z,3.70
2024-02-09T20:43:19.454Z,4.20
2024-02-09T20:45:47.941Z,3.90
2024-02-09T20:48:15.582Z,4.22
2024-02-09T20:50:44.708Z,4.20
2024-02-09T20:53:13.078Z,5.68
2024-02-09T20:55:43.047Z,4.90
2024-02-09T20:58:11.909Z,4.78
2024-02-09T21:00:41.809Z,4.88
2024-02-09T21:03:09.663Z,5.07
2024-02-09T21:05:37.364Z,5.28
2024-02-09T21:08:05.806Z,6.47
2024-02-09T21:10:36.383Z,5.85
2024-02-09T21:13:08.129Z,6.60
2024-02-09T21:15:36.088Z,7.18
2024-02-09T21:18:02.941Z,6.40
2024-02-09T21:20:30.985Z,6.17
2024-02-09T21:23:00.265Z,5.22
2024-02-09T21:25:26.982Z,5.32
2024-02-09T21:27:53.785Z,6.03
2024-02-09T21:30:25.539Z,5.78
2024-02-09T21:32:57.865Z,6.17
2024-02-09T21:35:31.067Z,6.60
2024-02-09T21:38:02.952Z,6.93
2024-02-09T21:40:33.185Z,6.55
2024-02-09T21:43:06.239Z,6.50
2024-02-09T21:45:36.549Z,6.67
2024-02-09T21:48:07.646Z,6.05
2024-02-09T21:50:37.242Z,6.47
2024-02-09T21:53:04.723Z,6.53
2024-02-09T21:55:31.962Z,7.07
2024-02-09T21:58:02.440Z,6.50
2024-02-09T22:00:34.934Z,7.28
2024-02-09T22:03:04.927Z,7.50
2024-02-09T22:05:31.963Z,7.50
2024-02-09T22:07:58.633Z,8.45
2024-02-09T22:10:27.627Z,8.17
2024-02-09T22:12:57.188Z,7.03
2024-02-09T22:15:29.197Z,7.20
2024-02-09T22:17:55.883Z,8.57
2024-02-09T22:20:24.747Z,8.43
2024-02-09T22:22:54.651Z,10.03
2024-02-09T22:25:21.607Z,7.65
2024-02-09T22:27:54.019Z,6.57
2024-02-09T22:30:21.081Z,6.20
2024-02-09T22:32:47.853Z,6.30
2024-02-09T22:35:19.413Z,5.93
2024-02-09T22:37:46.136Z,6.32
2024-02-09T22:40:16.037Z,7.82
2024-02-09T22:42:43.108Z,7.30
2024-02-09T22:45:13.226Z,7.15
2024-02-09T22:47:40.764Z,6.60
2024-02-09T22:50:13.748Z,6.95
2024-02-09T22:52:41.715Z,6.60
2024-02-09T22:55:08.515Z,6.97
2024-02-09T22:57:35.431Z,7.22
2024-02-09T23:00:17.442Z,6.80
2024-02-09T23:02:48.327Z,6.45
2024-02-09T23:05:17.732Z,6.80
2024-02-09T23:07:45.482Z,6.38
2024-02-09T23:10:13.142Z,6.50
2024-02-09T23:12:41.914Z,6.77
2024-02-09T23:15:17.735Z,7.80
2024-02-09T23:17:47.258Z,6.43
2024-02-09T23:20:14.786Z,6.43
2024-02-09T23:22:41.536Z,7.30
2024-02-09T23:25:08.663Z,7.07
2024-02-09T23:27:37.764Z,8.18
2024-02-09T23:30:11.560Z,7.78
2024-02-09T23:32:39.838Z,8.07
2024-02-09T23:35:09.410Z,8.02
2024-02-09T23:37:36.652Z,7.73
2024-02-09T23:40:03.392Z,7.35
2024-02-09T23:42:32.783Z,8.35
2024-02-09T23:45:03.053Z,9.52
2024-02-09T23:47:29.793Z,8.10
2024-02-09T23:49:59.226Z,8.23
2024-02-09T23:52:30.364Z,8.20
2024-02-09T23:54:56.978Z,8.93
2024-02-09T23:57:23.575Z,9.57
2024-02-09T23:59:54.975Z,8.68
